Time;durP1;ratioP1;P1;durP2;ratioP2;P2;SDS_P1;SDS_P2;PMS_P1;PMS_P2;Temp;Humidity;BMP_temperature;BMP_pressure;BME280_temperature;BME280_humidity;BME280_pressure;Samples;Min_cycle;Max_cycle;Signal;HPM_P1;HPM_P2
2023/11/22 00:02:17;;;;;;;;;;;10.10;92.20;;;;;;5066632;28;19931;-69
2023/11/22 00:04:43;;;;;;;;;;;10.10;92.00;;;;;;5067908;28;19959;-69
2023/11/22 00:07:09;;;;;;;;;;;10.20;92.00;;;;;;5066674;28;19947;-69
2023/11/22 00:09:35;;;;;;;;;;;10.10;92.00;;;;;;5068243;28;19917;-69
2023/11/22 00:12:00;;;;;;;;;;;10.20;92.10;;;;;;5068061;28;20323;-69
2023/11/22 00:14:26;;;;;;;;;;;10.20;92.10;;;;;;5067016;28;19948;-71
2023/11/22 00:16:52;;;;;;;;;;;10.20;92.10;;;;;;5068130;28;20540;-69
2023/11/22 00:19:22;;;;;;;;;;;10.20;92.10;;;;;;5066888;28;19916;-69
2023/11/22 00:21:47;;;;;;;;;;;10.30;92.10;;;;;;5067997;28;19921;-69
2023/11/22 00:24:13;;;;;;;;;;;10.30;92.10;;;;;;5066756;28;19912;-69
2023/11/22 00:26:39;;;;;;;;;;;10.30;92.10;;;;;;5068033;28;19917;-69
2023/11/22 00:29:05;;;;;;;;;;;10.40;92.10;;;;;;5068000;28;19913;-69
2023/11/22 00:31:30;;;;;;;;;;;10.50;92.10;;;;;;5067814;28;19908;-69
2023/11/22 00:33:56;;;;;;;;;;;10.50;92.10;;;;;;5067956;28;19939;-69
2023/11/22 00:36:22;;;;;;;;;;;10.50;92.10;;;;;;5067929;28;19923;-69
2023/11/22 00:38:47;;;;;;;;;;;10.50;92.10;;;;;;5067794;28;19924;-69
2023/11/22 00:41:14;;;;;;;;;;;10.50;92.10;;;;;;5067841;28;19944;-69
2023/11/22 00:43:40;;;;;;;;;;;10.50;92.10;;;;;;5067787;28;19919;-69
2023/11/22 00:46:06;;;;;;;;;;;10.50;92.10;;;;;;5067794;28;20017;-69
2023/11/22 00:48:32;;;;;;;;;;;10.60;92.10;;;;;;5083304;28;19948;-69
2023/11/22 00:50:57;;;;;;;;;;;10.60;92.10;;;;;;5083221;28;19908;-69
2023/11/22 00:53:23;;;;;;;;;;;10.60;92.10;;;;;;5067788;28;19963;-69
2023/11/22 00:55:49;;;;;;;;;;;10.60;92.10;;;;;;5067586;28;19947;-69
2023/11/22 00:58:14;;;;;;;;;;;10.60;92.10;;;;;;5070857;28;20343;-69
2023/11/22 01:00:40;;;;;;;;;;;10.60;92.10;;;;;;5071971;28;19909;-69
2023/11/22 01:03:08;;;;;;;;;;;10.60;92.10;;;;;;5071593;28;19975;-69
2023/11/22 01:05:34;;;;;;;;;;;10.60;92.10;;;;;;5071810;28;19913;-69
2023/11/22 01:07:59;;;;;;;;;;;10.60;92.10;;;;;;5071607;28;20003;-69
2023/11/22 01:10:25;;;;;;;;;;;10.60;92.10;;;;;;5071366;28;20319;-69
2023/11/22 01:12:50;;;;;;;;;;;10.70;92.10;;;;;;5071631;28;20075;-69
2023/11/22 01:15:16;;;;;;;;;;;10.70;92.10;;;;;;5071397;28;19921;-69
2023/11/22 01:17:42;;;;;;;;;;;10.70;92.10;;;;;;5071520;28;19908;-69
2023/11/22 01:20:09;;;;;;;;;;;10.70;92.10;;;;;;5071436;28;19912;-69
2023/11/22 01:22:35;;;;;;;;;;;10.60;92.10;;;;;;5071337;28;19983;-69
2023/11/22 01:25:01;;;;;;;;;;;10.60;92.10;;;;;;5071334;28;19959;-70
2023/11/22 01:27:27;;;;;;;;;;;10.70;92.20;;;;;;5071364;28;19913;-70
2023/11/22 01:29:54;;;;;;;;;;;10.70;92.20;;;;;;5071245;28;19913;-69
2023/11/22 01:32:20;;;;;;;;;;;10.70;92.20;;;;;;5071196;28;19912;-70
2023/11/22 01:34:45;;;;;;;;;;;10.70;92.10;;;;;;5071205;28;20478;-69
2023/11/22 01:37:12;;;;;;;;;;;10.70;92.10;;;;;;5071059;28;19920;-69
2023/11/22 01:39:40;;;;;;;;;;;10.70;92.10;;;;;;5071167;28;19948;-69
2023/11/22 01:42:06;;;;;;;;;;;10.70;92.10;;;;;;5071146;28;19908;-70
2023/11/22 01:44:32;;;;;;;;;;;10.70;92.20;;;;;;5069803;28;19994;-70
2023/11/22 01:46:57;;;;;;;;;;;10.70;92.20;;;;;;5071132;28;19956;-70
2023/11/22 01:49:23;;;;;;;;;;;10.70;92.20;;;;;;5071246;28;19912;-69
2023/11/22 01:51:49;;;;;;;;;;;10.70;92.20;;;;;;5070858;28;19974;-69
2023/11/22 01:54:15;;;;;;;;;;;10.70;92.20;;;;;;5071069;28;20364;-70
2023/11/22 01:56:41;;;;;;;;;;;10.70;92.20;;;;;;5070644;28;20007;-69
2023/11/22 01:59:07;;;;;;;;;;;10.70;92.20;;;;;;5069471;28;20325;-69
2023/11/22 02:01:32;;;;;;;;;;;10.70;92.20;;;;;;5070506;28;19920;-70
2023/11/22 02:03:58;;;;;;;;;;;10.70;92.20;;;;;;5069676;28;20012;-70
2023/11/22 02:06:24;;;;;;;;;;;10.70;92.20;;;;;;5070975;28;19959;-70
2023/11/22 02:08:50;;;;;;;;;;;10.70;92.20;;;;;;5070112;28;19908;-69
2023/11/22 02:11:22;;;;;;;;;;;10.80;92.20;;;;;;5070568;28;19917;-70
2023/11/22 02:13:50;;;;;;;;;;;10.70;92.20;;;;;;5070410;28;19982;-70
2023/11/22 02:16:16;;;;;;;;;;;10.70;92.20;;;;;;5070346;28;19916;-69
2023/11/22 02:18:48;;;;;;;;;;;10.70;92.20;;;;;;5069122;28;20299;-70
2023/11/22 02:21:16;;;;;;;;;;;10.70;92.20;;;;;;5070317;28;20000;-70
2023/11/22 02:23:42;;;;;;;;;;;10.70;92.20;;;;;;5068838;28;20400;-70
2023/11/22 02:26:08;;;;;;;;;;;10.80;92.20;;;;;;5069001;28;19923;-69
2023/11/22 02:28:33;;;;;;;;;;;10.80;92.30;;;;;;5070222;28;19913;-69
2023/11/22 02:30:59;;;;;;;;;;;10.80;92.30;;;;;;5070280;28;20288;-70
2023/11/22 02:33:24;;;;;;;;;;;10.80;92.20;;;;;;5070042;28;20352;-69
2023/11/22 02:35:50;;;;;;;;;;;10.80;92.50;;;;;;5069989;28;20326;-70
2023/11/22 02:38:18;;;;;;;;;;;10.80;92.20;;;;;;5070004;28;19935;-69
2023/11/22 02:40:43;;;;;;;;;;;10.80;92.20;;;;;;5070105;28;20003;-69
2023/11/22 02:43:10;;;;;;;;;;;10.90;92.20;;;;;;5069948;28;19989;-70
2023/11/22 02:45:36;;;;;;;;;;;10.90;92.30;;;;;;5069950;28;19917;-69
2023/11/22 02:48:03;;;;;;;;;;;10.80;92.20;;;;;;5069828;28;20304;-70
2023/11/22 02:50:29;;;;;;;;;;;10.90;92.30;;;;;;5069763;28;19920;-70
2023/11/22 02:52:55;;;;;;;;;;;10.80;92.20;;;;;;5069606;28;19939;-69
2023/11/22 02:55:20;;;;;;;;;;;10.90;92.30;;;;;;5069661;28;20361;-70
2023/11/22 02:57:46;;;;;;;;;;;10.90;92.30;;;;;;5068488;28;19924;-70
2023/11/22 03:00:14;;;;;;;;;;;10.90;92.20;;;;;;5069658;28;20008;-69
2023/11/22 03:02:41;;;;;;;;;;;10.90;92.30;;;;;;5069337;28;19951;-70
2023/11/22 03:05:07;;;;;;;;;;;10.80;92.20;;;;;;5069558;28;20343;-70
2023/11/22 03:07:33;;;;;;;;;;;10.80;92.20;;;;;;5069551;28;20193;-69
2023/11/22 03:10:00;;;;;;;;;;;10.80;92.20;;;;;;5085273;28;19920;-70
2023/11/22 03:12:25;;;;;;;;;;;10.80;92.20;;;;;;5084785;28;19922;-69
2023/11/22 03:14:51;;;;;;;;;;;10.80;92.20;;;;;;5068031;28;19999;-70
2023/11/22 03:17:17;;;;;;;;;;;10.80;92.20;;;;;;5069187;28;19924;-70
2023/11/22 03:19:44;;;;;;;;;;;10.80;92.20;;;;;;5068330;28;20297;-69
2023/11/22 03:22:09;;;;;;;;;;;10.80;92.20;;;;;;5069142;28;20434;-69
2023/11/22 03:24:36;;;;;;;;;;;10.80;92.30;;;;;;5069139;28;19920;-69
2023/11/22 03:27:02;;;;;;;;;;;10.80;92.40;;;;;;5069087;28;19982;-69
2023/11/22 03:29:29;;;;;;;;;;;10.80;92.30;;;;;;5067900;28;20376;-69
2023/11/22 03:31:54;;;;;;;;;;;10.80;92.30;;;;;;5068872;28;19946;-69
2023/11/22 03:34:20;;;;;;;;;;;10.80;92.30;;;;;;5067638;28;19964;-69
2023/11/22 03:36:46;;;;;;;;;;;10.80;92.30;;;;;;5068763;28;19926;-69
2023/11/22 03:39:14;;;;;;;;;;;10.90;92.30;;;;;;5068823;28;19909;-69
2023/11/22 03:41:40;;;;;;;;;;;10.80;92.30;;;;;;5068775;28;19912;-69
2023/11/22 03:44:08;;;;;;;;;;;10.90;92.30;;;;;;5067462;28;19924;-69
2023/11/22 03:46:37;;;;;;;;;;;10.90;92.30;;;;;;5068861;28;20096;-69
2023/11/22 03:49:03;;;;;;;;;;;10.90;92.20;;;;;;5068567;28;19916;-69
2023/11/22 03:51:29;;;;;;;;;;;10.80;92.10;;;;;;5068655;28;20015;-70
2023/11/22 03:53:54;;;;;;;;;;;10.80;92.10;;;;;;5068736;28;20003;-70
2023/11/22 03:56:21;;;;;;;;;;;10.70;92.10;;;;;;5068483;28;20279;-70
2023/11/22 03:58:47;;;;;;;;;;;10.70;92.10;;;;;;5068590;28;20353;-70
2023/11/22 04:01:12;;;;;;;;;;;10.70;92.20;;;;;;5067093;28;20004;-70
2023/11/22 04:03:38;;;;;;;;;;;10.70;92.20;;;;;;5068867;28;19923;-70
2023/11/22 04:06:03;;;;;;;;;;;10.70;92.20;;;;;;5068309;28;20000;-70
2023/11/22 04:08:29;;;;;;;;;;;10.60;92.20;;;;;;5068362;28;19916;-70
2023/11/22 04:10:56;;;;;;;;;;;10.70;92.30;;;;;;5067656;28;20142;-70
2023/11/22 04:13:24;;;;;;;;;;;10.70;92.30;;;;;;5068199;28;20353;-70
2023/11/22 04:15:50;;;;;;;;;;;10.70;92.20;;;;;;5068078;28;20304;-71
2023/11/22 04:18:16;;;;;;;;;;;10.70;92.20;;;;;;5068114;28;19987;-70
2023/11/22 04:20:42;;;;;;;;;;;10.70;92.30;;;;;;5068086;28;19915;-70
2023/11/22 04:23:10;;;;;;;;;;;10.70;92.30;;;;;;5067977;28;20326;-70
2023/11/22 04:25:36;;;;;;;;;;;10.70;92.30;;;;;;5068170;28;19917;-70
2023/11/22 04:28:02;;;;;;;;;;;10.70;92.30;;;;;;5066871;28;19982;-70
2023/11/22 04:30:27;;;;;;;;;;;10.80;92.30;;;;;;5067890;28;20442;-70
2023/11/22 04:32:53;;;;;;;;;;;10.80;92.30;;;;;;5067909;28;19909;-70
2023/11/22 04:35:19;;;;;;;;;;;10.80;92.30;;;;;;5066632;28;19916;-70
2023/11/22 04:37:44;;;;;;;;;;;10.90;92.30;;;;;;5066699;28;20384;-70
2023/11/22 04:40:11;;;;;;;;;;;10.90;92.30;;;;;;5067844;28;19965;-70
2023/11/22 04:42:37;;;;;;;;;;;10.90;92.30;;;;;;5067863;28;19916;-70
2023/11/22 04:45:06;;;;;;;;;;;10.90;92.30;;;;;;5067723;28;19909;-70
2023/11/22 04:47:32;;;;;;;;;;;10.90;92.30;;;;;;5067800;28;19946;-70
2023/11/22 04:49:57;;;;;;;;;;;11.00;92.30;;;;;;5067881;28;19958;-70
2023/11/22 04:52:23;;;;;;;;;;;11.00;92.30;;;;;;5067740;28;19913;-70
2023/11/22 04:54:49;;;;;;;;;;;11.00;92.30;;;;;;5067768;28;20364;-71
2023/11/22 04:57:15;;;;;;;;;;;11.00;92.30;;;;;;5067632;28;19961;-71
2023/11/22 04:59:40;;;;;;;;;;;11.00;92.30;;;;;;5067510;28;20278;-70
2023/11/22 05:02:07;;;;;;;;;;;11.00;92.30;;;;;;5067147;28;19925;-70
2023/11/22 05:04:32;;;;;;;;;;;11.00;92.30;;;;;;5066314;28;19939;-70
2023/11/22 05:06:58;;;;;;;;;;;11.00;92.30;;;;;;5067407;28;19908;-70
2023/11/22 05:09:24;;;;;;;;;;;11.00;92.30;;;;;;5067615;28;19912;-70
2023/11/22 05:11:49;;;;;;;;;;;11.00;92.30;;;;;;5067597;28;20340;-70
2023/11/22 05:14:15;;;;;;;;;;;11.00;92.30;;;;;;5067529;28;19977;-71
2023/11/22 05:16:40;;;;;;;;;;;11.00;92.50;;;;;;5067379;28;20365;-70
2023/11/22 05:19:06;;;;;;;;;;;11.00;92.30;;;;;;5067530;28;19962;-71
2023/11/22 05:21:32;;;;;;;;;;;11.00;92.30;;;;;;5067389;28;19920;-71
2023/11/22 05:23:58;;;;;;;;;;;11.10;92.40;;;;;;5067447;28;20332;-70
2023/11/22 05:26:23;;;;;;;;;;;11.10;92.40;;;;;;5067394;28;20004;-70
2023/11/22 05:28:49;;;;;;;;;;;11.10;92.40;;;;;;5067377;28;19996;-70
2023/11/22 05:31:14;;;;;;;;;;;11.10;92.40;;;;;;5066084;28;20460;-71
2023/11/22 05:33:40;;;;;;;;;;;11.10;92.60;;;;;;5067358;28;19912;-70
2023/11/22 05:36:06;;;;;;;;;;;11.20;92.40;;;;;;5067257;28;19973;-70
2023/11/22 05:38:34;;;;;;;;;;;11.20;92.40;;;;;;5067275;28;19913;-70
2023/11/22 05:41:00;;;;;;;;;;;11.20;92.40;;;;;;5067171;28;19932;-70
2023/11/22 05:43:26;;;;;;;;;;;11.20;92.40;;;;;;5067293;28;19917;-68
2023/11/22 05:45:52;;;;;;;;;;;11.20;92.40;;;;;;5070891;28;19920;-70
2023/11/22 05:48:19;;;;;;;;;;;11.20;92.40;;;;;;5070866;28;19908;-70
2023/11/22 05:50:45;;;;;;;;;;;11.20;92.40;;;;;;5069547;28;19908;-70
2023/11/22 05:53:11;;;;;;;;;;;11.30;92.40;;;;;;5070681;28;19912;-71
2023/11/22 05:55:37;;;;;;;;;;;11.30;92.40;;;;;;5070636;28;19912;-70
2023/11/22 05:58:03;;;;;;;;;;;11.30;92.40;;;;;;5069469;28;19917;-71
2023/11/22 06:00:29;;;;;;;;;;;11.20;92.40;;;;;;5068870;28;19912;-70
2023/11/22 06:02:55;;;;;;;;;;;11.20;92.40;;;;;;5070422;28;19954;-70
2023/11/22 06:05:21;;;;;;;;;;;11.20;92.40;;;;;;5086189;28;19962;-70
2023/11/22 06:07:47;;;;;;;;;;;11.20;92.40;;;;;;5070703;28;19919;-70
2023/11/22 06:10:14;;;;;;;;;;;11.20;92.40;;;;;;5070608;28;20365;-70
2023/11/22 06:12:40;;;;;;;;;;;11.20;92.40;;;;;;5070511;28;19912;-71
2023/11/22 06:15:06;;;;;;;;;;;11.20;92.40;;;;;;5070306;28;19917;-70
2023/11/22 06:17:31;;;;;;;;;;;11.20;92.40;;;;;;5070196;28;19921;-70
2023/11/22 06:19:57;;;;;;;;;;;11.20;92.40;;;;;;5070604;28;19920;-70
2023/11/22 06:22:22;;;;;;;;;;;11.30;92.40;;;;;;5070183;28;19917;-70
2023/11/22 06:24:48;;;;;;;;;;;11.30;92.40;;;;;;5068961;28;20257;-71
2023/11/22 06:27:15;;;;;;;;;;;11.30;92.40;;;;;;5070057;28;20003;-71
2023/11/22 06:29:42;;;;;;;;;;;11.30;92.40;;;;;;5070041;28;19908;-71
2023/11/22 06:32:09;;;;;;;;;;;11.20;92.40;;;;;;5069973;28;19923;-70
2023/11/22 06:34:36;;;;;;;;;;;11.30;92.50;;;;;;5070022;28;19912;-70
2023/11/22 06:37:01;;;;;;;;;;;11.30;92.50;;;;;;5069786;28;19938;-70
2023/11/22 06:39:27;;;;;;;;;;;11.30;92.50;;;;;;5069795;28;19932;-70
2023/11/22 06:41:52;;;;;;;;;;;11.30;92.50;;;;;;5069852;28;19919;-70
2023/11/22 06:44:18;;;;;;;;;;;11.30;92.70;;;;;;5068406;28;19916;-70
2023/11/22 06:46:44;;;;;;;;;;;11.40;92.50;;;;;;5085526;28;20229;-70
2023/11/22 06:49:09;;;;;;;;;;;11.40;92.50;;;;;;5069666;28;19958;-70
2023/11/22 06:51:35;;;;;;;;;;;11.40;92.50;;;;;;5069538;28;19916;-70
2023/11/22 06:54:00;;;;;;;;;;;11.40;92.50;;;;;;5068983;28;20321;-70
2023/11/22 06:56:26;;;;;;;;;;;11.50;92.50;;;;;;5069073;28;19916;-70
2023/11/22 06:58:52;;;;;;;;;;;11.50;92.50;;;;;;5069573;28;20414;-71
2023/11/22 07:01:17;;;;;;;;;;;11.50;92.50;;;;;;5067816;28;20384;-71
2023/11/22 07:03:43;;;;;;;;;;;11.50;92.50;;;;;;5069455;28;19958;-71
2023/11/22 07:06:09;;;;;;;;;;;11.40;92.50;;;;;;5069396;28;19912;-70
2023/11/22 07:08:36;;;;;;;;;;;11.50;92.50;;;;;;5068939;28;19970;-69
2023/11/22 07:11:03;;;;;;;;;;;11.50;92.50;;;;;;5069188;28;20007;-70
2023/11/22 07:13:29;;;;;;;;;;;11.50;92.50;;;;;;5084644;28;19909;-70
2023/11/22 07:15:55;;;;;;;;;;;11.50;92.50;;;;;;5069088;28;19924;-71
2023/11/22 07:18:24;;;;;;;;;;;11.50;92.50;;;;;;5068871;28;19912;-71
2023/11/22 07:20:49;;;;;;;;;;;11.50;92.50;;;;;;5069007;28;19958;-71
2023/11/22 07:23:15;;;;;;;;;;;11.50;92.50;;;;;;5068963;28;20003;-71
2023/11/22 07:25:41;;;;;;;;;;;11.50;92.50;;;;;;5067919;28;19913;-71
2023/11/22 07:28:07;;;;;;;;;;;11.50;92.50;;;;;;5068808;28;20732;-71
2023/11/22 07:30:33;;;;;;;;;;;11.50;92.50;;;;;;5068368;28;20011;-71
2023/11/22 07:32:59;;;;;;;;;;;11.50;92.50;;;;;;5068600;28;19963;-71
2023/11/22 07:35:28;;;;;;;;;;;11.50;92.50;;;;;;5068744;28;20021;-70
2023/11/22 07:37:54;;;;;;;;;;;11.50;92.50;;;;;;5068669;28;19919;-71
2023/11/22 07:40:21;;;;;;;;;;;11.60;92.60;;;;;;5067493;28;19917;-70
2023/11/22 07:42:47;;;;;;;;;;;11.60;92.50;;;;;;5067894;28;20017;-70
2023/11/22 07:45:13;;;;;;;;;;;11.60;92.50;;;;;;5067040;28;19947;-70
2023/11/22 07:47:43;;;;;;;;;;;11.60;92.50;;;;;;5068031;28;19927;-70
2023/11/22 07:50:10;;;;;;;;;;;11.60;92.50;;;;;;5068087;28;20354;-69
2023/11/22 07:52:36;;;;;;;;;;;11.60;92.50;;;;;;5068311;28;19923;-70
2023/11/22 07:55:02;;;;;;;;;;;11.60;92.60;;;;;;5068042;28;19913;-69
2023/11/22 07:57:28;;;;;;;;;;;11.60;92.60;;;;;;5068026;28;19924;-70
2023/11/22 07:59:55;;;;;;;;;;;11.60;92.50;;;;;;5067611;28;19966;-71
2023/11/22 08:02:21;;;;;;;;;;;11.50;92.50;;;;;;5067382;28;19982;-69
2023/11/22 08:04:48;;;;;;;;;;;11.50;92.50;;;;;;5066610;28;19920;-70
2023/11/22 08:07:14;;;;;;;;;;;11.60;92.60;;;;;;5067558;28;19913;-71
2023/11/22 08:09:40;;;;;;;;;;;11.50;92.60;;;;;;5067631;28;19966;-70
2023/11/22 08:12:06;;;;;;;;;;;11.50;92.50;;;;;;5067825;28;19912;-70
2023/11/22 08:14:32;;;;;;;;;;;11.50;92.60;;;;;;5067782;28;20273;-70
2023/11/22 08:16:58;;;;;;;;;;;11.50;92.60;;;;;;5067469;28;19963;-71
2023/11/22 08:19:24;;;;;;;;;;;11.50;92.60;;;;;;5068001;28;19919;-71
2023/11/22 08:21:50;;;;;;;;;;;11.50;92.60;;;;;;5067711;28;19963;-71
2023/11/22 08:24:16;;;;;;;;;;;11.50;92.60;;;;;;5067738;28;19960;-71
2023/11/22 08:26:42;;;;;;;;;;;11.50;92.60;;;;;;5067878;28;19908;-71
2023/11/22 08:29:07;;;;;;;;;;;11.50;92.60;;;;;;5067905;28;19908;-71
2023/11/22 08:31:36;;;;;;;;;;;11.50;92.60;;;;;;5067791;28;19916;-71
2023/11/22 08:34:01;;;;;;;;;;;11.50;92.60;;;;;;5067671;28;19985;-71
2023/11/22 08:36:28;;;;;;;;;;;11.50;92.60;;;;;;5067608;28;20443;-71
2023/11/22 08:38:55;;;;;;;;;;;11.60;92.60;;;;;;5067665;28;19912;-70
2023/11/22 08:41:21;;;;;;;;;;;11.60;92.60;;;;;;5067522;28;19919;-71
2023/11/22 08:43:47;;;;;;;;;;;11.60;92.60;;;;;;5083244;28;19913;-71
2023/11/22 08:46:14;;;;;;;;;;;11.60;92.60;;;;;;5067299;28;19909;-71
2023/11/22 08:48:39;;;;;;;;;;;11.60;92.60;;;;;;5067580;28;19927;-71
2023/11/22 08:51:07;;;;;;;;;;;11.70;92.70;;;;;;5065455;28;20259;-71
2023/11/22 08:53:33;;;;;;;;;;;11.70;92.60;;;;;;5065763;28;19919;-71
2023/11/22 08:55:58;;;;;;;;;;;11.70;92.60;;;;;;5067167;28;19920;-71
2023/11/22 08:58:24;;;;;;;;;;;11.70;92.60;;;;;;5067587;28;20011;-71
2023/11/22 09:00:50;;;;;;;;;;;11.70;92.60;;;;;;5065757;28;19908;-70
2023/11/22 09:03:17;;;;;;;;;;;11.70;92.60;;;;;;5076106;28;20300;-70
2023/11/22 09:05:43;;;;;;;;;;;11.70;92.60;;;;;;5076075;28;19916;-70
2023/11/22 09:08:14;;;;;;;;;;;11.80;92.70;;;;;;5077137;28;20249;-71
2023/11/22 09:10:41;;;;;;;;;;;11.80;92.60;;;;;;5076379;28;20027;-70
2023/11/22 09:13:07;;;;;;;;;;;11.80;92.70;;;;;;5080756;28;19919;-71
2023/11/22 09:15:33;;;;;;;;;;;11.80;92.60;;;;;;5077263;28;19908;-71
2023/11/22 09:17:59;;;;;;;;;;;11.90;92.70;;;;;;5077910;28;19954;-71
2023/11/22 09:20:25;;;;;;;;;;;11.90;92.60;;;;;;5079692;28;19956;-71
2023/11/22 09:22:52;;;;;;;;;;;11.90;92.70;;;;;;5079979;28;20415;-71
2023/11/22 09:25:21;;;;;;;;;;;11.90;92.70;;;;;;5081092;28;20340;-71
2023/11/22 09:27:48;;;;;;;;;;;12.00;92.70;;;;;;5081401;28;19962;-71
2023/11/22 09:30:32;;;;;;;;;;;12.00;92.70;;;;;;5080920;28;20572;-71
2023/11/22 09:33:05;;;;;;;;;;;12.00;92.70;;;;;;5078803;28;19948;-71
2023/11/22 09:35:31;;;;;;;;;;;12.00;92.70;;;;;;5079270;28;19978;-69
2023/11/22 09:38:00;;;;;;;;;;;12.00;92.70;;;;;;5081262;28;19928;-71
2023/11/22 09:40:31;;;;;;;;;;;12.00;92.70;;;;;;5072912;28;19919;-71
2023/11/22 09:42:57;;;;;;;;;;;12.10;92.70;;;;;;5073349;28;19916;-71
2023/11/22 09:45:25;;;;;;;;;;;12.10;92.70;;;;;;5078379;28;19920;-71
2023/11/22 09:47:50;;;;;;;;;;;12.10;92.70;;;;;;5082137;28;19969;-72
2023/11/22 09:50:21;;;;;;;;;;;12.10;92.70;;;;;;5074368;28;19913;-72
2023/11/22 09:52:50;;;;;;;;;;;12.10;92.70;;;;;;5079473;28;19912;-72
2023/11/22 09:55:15;;;;;;;;;;;12.10;92.70;;;;;;5080748;28;19985;-72
2023/11/22 09:57:41;;;;;;;;;;;12.10;92.70;;;;;;5078118;28;19921;-72
2023/11/22 10:00:08;;;;;;;;;;;12.10;92.70;;;;;;5075515;28;19920;-72
2023/11/22 10:02:35;;;;;;;;;;;12.20;92.70;;;;;;5081440;28;19920;-72
2023/11/22 10:05:01;;;;;;;;;;;12.20;92.70;;;;;;5070531;28;19932;-72
2023/11/22 10:07:26;;;;;;;;;;;12.20;92.70;;;;;;5078461;28;19925;-72
2023/11/22 10:09:52;;;;;;;;;;;12.20;92.70;;;;;;5081580;28;19961;-72
2023/11/22 10:12:21;;;;;;;;;;;12.20;92.70;;;;;;5081786;28;19917;-72
2023/11/22 10:14:47;;;;;;;;;;;12.30;92.70;;;;;;5082856;28;19921;-73
2023/11/22 10:17:15;;;;;;;;;;;12.30;92.80;;;;;;5078896;28;19919;-71
2023/11/22 10:19:40;;;;;;;;;;;12.30;92.70;;;;;;5078345;28;19971;-71
2023/11/22 10:22:07;;;;;;;;;;;12.30;92.70;;;;;;5082267;28;19946;-71
2023/11/22 10:24:36;;;;;;;;;;;12.30;92.70;;;;;;5081366;28;19958;-73
2023/11/22 10:27:02;;;;;;;;;;;12.30;92.70;;;;;;5077980;28;19922;-73
2023/11/22 10:29:28;;;;;;;;;;;12.30;92.70;;;;;;5079378;28;20042;-72
2023/11/22 10:31:54;;;;;;;;;;;12.30;92.70;;;;;;5081301;28;20003;-78
2023/11/22 10:34:21;;;;;;;;;;;12.40;92.80;;;;;;5089394;28;19909;-78
2023/11/22 10:36:47;;;;;;;;;;;12.40;92.80;;;;;;5082040;28;19916;-78
2023/11/22 10:39:16;;;;;;;;;;;12.40;92.80;;;;;;5088761;28;19919;-77
2023/11/22 10:41:42;;;;;;;;;;;12.40;92.80;;;;;;5074176;28;20309;-82
2023/11/22 10:44:08;;;;;;;;;;;12.40;92.80;;;;;;5084457;28;19915;-64
2023/11/22 10:46:34;;;;;;;;;;;12.50;92.80;;;;;;5077807;28;19912;-79
2023/11/22 10:48:59;;;;;;;;;;;12.50;92.80;;;;;;5076000;28;20659;-76
2023/11/22 10:51:30;;;;;;;;;;;12.60;92.80;;;;;;5075341;28;19963;-81
2023/11/22 10:53:56;;;;;;;;;;;12.60;92.80;;;;;;5080920;28;19920;-77
2023/11/22 10:56:22;;;;;;;;;;;12.60;92.80;;;;;;5083942;28;19916;-79
2023/11/22 10:58:49;;;;;;;;;;;12.70;92.80;;;;;;5088374;28;19944;-80
2023/11/22 11:01:23;;;;;;;;;;;12.70;92.80;;;;;;5071254;28;20399;-79
2023/11/22 11:03:55;;;;;;;;;;;12.70;92.80;;;;;;5090219;28;19933;-77
2023/11/22 11:06:27;;;;;;;;;;;12.80;92.80;;;;;;5091714;28;19908;-77
2023/11/22 11:08:53;;;;;;;;;;;12.70;92.80;;;;;;5081900;28;19957;-78
2023/11/22 11:11:19;;;;;;;;;;;12.80;92.80;;;;;;5086888;28;19919;-76
2023/11/22 11:13:46;;;;;;;;;;;12.80;92.80;;;;;;5082925;28;19920;-78
2023/11/22 11:16:12;;;;;;;;;;;12.90;92.90;;;;;;5083795;28;20359;-79
2023/11/22 11:18:38;;;;;;;;;;;12.90;92.80;;;;;;5084965;28;19919;-78
2023/11/22 11:21:07;;;;;;;;;;;12.90;92.80;;;;;;5086634;28;19947;-78
2023/11/22 11:23:33;;;;;;;;;;;12.90;92.80;;;;;;5072499;28;19909;-78
2023/11/22 11:26:08;;;;;;;;;;;12.90;92.80;;;;;;5058054;28;20280;-78
2023/11/22 11:28:44;;;;;;;;;;;12.80;92.70;;;;;;5071840;28;19991;-77
2023/11/22 11:31:09;;;;;;;;;;;12.80;92.80;;;;;;5090036;28;19908;-77
2023/11/22 11:33:53;;;;;;;;;;;12.80;92.80;;;;;;5072096;28;19931;-78
2023/11/22 11:36:29;;;;;;;;;;;12.80;92.80;;;;;;5070727;28;19912;-79
2023/11/22 11:38:56;;;;;;;;;;;12.80;92.80;;;;;;5079276;28;19922;-78
2023/11/22 11:41:26;;;;;;;;;;;12.80;92.80;;;;;;5084352;28;20573;-75
2023/11/22 11:43:51;;;;;;;;;;;12.80;92.90;;;;;;5081926;28;19961;-77
2023/11/22 11:46:17;;;;;;;;;;;12.90;92.90;;;;;;5079237;28;19912;-77
2023/11/22 11:48:44;;;;;;;;;;;12.90;92.90;;;;;;5078595;28;20368;-77
2023/11/22 11:51:13;;;;;;;;;;;12.90;92.90;;;;;;5081775;28;19923;-76
2023/11/22 11:53:39;;;;;;;;;;;12.90;92.90;;;;;;5081496;28;19908;-77
2023/11/22 11:56:05;;;;;;;;;;;13.00;92.90;;;;;;5081306;28;19939;-77
2023/11/22 11:58:30;;;;;;;;;;;13.00;92.90;;;;;;5076775;28;20487;-76
2023/11/22 12:00:56;;;;;;;;;;;13.00;92.90;;;;;;5080139;28;20148;-76
2023/11/22 12:03:22;;;;;;;;;;;13.10;92.90;;;;;;5075597;28;19924;-75
2023/11/22 12:05:51;;;;;;;;;;;13.10;92.90;;;;;;5075626;28;19917;-74
2023/11/22 12:08:18;;;;;;;;;;;13.10;92.80;;;;;;5079578;28;20377;-74
2023/11/22 12:10:48;;;;;;;;;;;13.10;92.80;;;;;;5072999;28;19916;-74
2023/11/22 12:13:18;;;;;;;;;;;13.10;92.80;;;;;;5069274;28;19912;-74
2023/11/22 12:15:44;;;;;;;;;;;13.20;92.90;;;;;;5069029;28;19919;-75
2023/11/22 12:18:11;;;;;;;;;;;13.30;92.90;;;;;;5068984;28;19908;-76
2023/11/22 12:20:37;;;;;;;;;;;13.30;92.90;;;;;;5068749;28;19913;-75
2023/11/22 12:23:03;;;;;;;;;;;13.30;92.90;;;;;;5068981;28;19908;-75
2023/11/22 12:25:29;;;;;;;;;;;13.30;92.90;;;;;;5067703;28;19919;-75
2023/11/22 12:27:55;;;;;;;;;;;13.30;92.80;;;;;;5068833;28;19993;-75
2023/11/22 12:30:34;;;;;;;;;;;13.30;92.90;;;;;;5077138;28;20280;-75
2023/11/22 12:33:02;;;;;;;;;;;13.40;92.90;;;;;;5085718;28;19913;-76
2023/11/22 12:35:28;;;;;;;;;;;13.40;92.90;;;;;;5073054;28;20337;-75
2023/11/22 12:37:54;;;;;;;;;;;13.40;92.90;;;;;;5076211;28;19945;-75
2023/11/22 12:40:20;;;;;;;;;;;13.40;92.90;;;;;;5076694;28;20277;-75
2023/11/22 12:42:53;;;;;;;;;;;13.40;92.90;;;;;;5079534;28;19908;-75
2023/11/22 12:45:23;;;;;;;;;;;13.40;93.00;;;;;;5077869;28;19909;-75
2023/11/22 12:47:49;;;;;;;;;;;13.50;93.00;;;;;;5084279;28;20287;-76
2023/11/22 12:50:31;;;;;;;;;;;13.50;93.00;;;;;;5077741;28;19965;-75
2023/11/22 12:53:12;;;;;;;;;;;13.40;92.90;;;;;;5084276;28;19953;-75
2023/11/22 12:55:45;;;;;;;;;;;13.40;93.20;;;;;;5078896;28;20055;-76
2023/11/22 12:58:12;;;;;;;;;;;13.40;93.00;;;;;;5074323;28;19951;-75
2023/11/22 13:00:39;;;;;;;;;;;13.50;93.00;;;;;;5076017;28;20372;-77
2023/11/22 13:03:05;;;;;;;;;;;13.40;93.00;;;;;;5078760;28;19988;-75
2023/11/22 13:05:31;;;;;;;;;;;13.50;93.00;;;;;;5080321;28;19934;-75
2023/11/22 13:07:57;;;;;;;;;;;13.50;93.00;;;;;;5079863;28;19912;-69
2023/11/22 13:10:25;;;;;;;;;;;13.50;93.00;;;;;;5078275;28;20292;-71
2023/11/22 13:12:54;;;;;;;;;;;13.50;93.00;;;;;;5072981;28;20634;-71
2023/11/22 13:15:20;;;;;;;;;;;13.50;93.00;;;;;;5076211;28;19920;-72
2023/11/22 13:17:46;;;;;;;;;;;13.50;93.00;;;;;;5079050;28;20316;-70
2023/11/22 13:20:15;;;;;;;;;;;13.50;93.00;;;;;;5078950;28;19932;-70
2023/11/22 13:22:41;;;;;;;;;;;13.40;93.00;;;;;;5076142;28;19912;-70
2023/11/22 13:25:27;;;;;;;;;;;13.40;93.00;;;;;;5073341;28;19939;-70
2023/11/22 13:27:53;;;;;;;;;;;13.40;93.00;;;;;;5076745;28;19920;-70
2023/11/22 13:30:22;;;;;;;;;;;13.30;92.90;;;;;;5061233;28;20280;-71
2023/11/22 13:32:57;;;;;;;;;;;13.30;93.00;;;;;;5077482;28;19912;-71
2023/11/22 13:35:29;;;;;;;;;;;13.30;93.00;;;;;;5078560;28;20642;-72
2023/11/22 13:37:56;;;;;;;;;;;13.20;93.00;;;;;;5076668;28;19920;-72
2023/11/22 13:40:22;;;;;;;;;;;13.20;93.00;;;;;;5076923;28;19909;-71
2023/11/22 13:42:50;;;;;;;;;;;13.20;92.90;;;;;;5076644;28;19923;-72
2023/11/22 13:45:16;;;;;;;;;;;13.20;93.00;;;;;;5075880;28;19920;-71
2023/11/22 13:47:43;;;;;;;;;;;13.10;93.00;;;;;;5078848;28;19912;-72
2023/11/22 13:50:09;;;;;;;;;;;13.10;93.00;;;;;;5080271;28;19916;-72
2023/11/22 13:52:34;;;;;;;;;;;13.10;93.00;;;;;;5061954;28;19974;-71
2023/11/22 13:55:01;;;;;;;;;;;13.10;93.00;;;;;;5074364;28;19930;-71
2023/11/22 13:57:27;;;;;;;;;;;13.10;93.00;;;;;;5076282;28;19927;-70
2023/11/22 13:59:53;;;;;;;;;;;13.10;93.00;;;;;;5079353;28;20311;-70
2023/11/22 14:02:19;;;;;;;;;;;13.10;93.00;;;;;;5076878;28;19978;-71
2023/11/22 14:04:46;;;;;;;;;;;13.10;93.20;;;;;;5078043;28;19963;-71
2023/11/22 14:07:11;;;;;;;;;;;13.10;93.00;;;;;;5080211;28;20324;-70
2023/11/22 14:09:37;;;;;;;;;;;13.10;93.00;;;;;;5078711;28;19917;-73
2023/11/22 14:12:02;;;;;;;;;;;13.10;93.00;;;;;;5082028;28;19936;-79
2023/11/22 14:14:28;;;;;;;;;;;13.10;93.00;;;;;;5088190;28;19959;-78